Time;durP1;ratioP1;P1;durP2;ratioP2;P2;SDS_P1;SDS_P2;PMS_P1;PMS_P2;Temp;Humidity;BMP_temperature;BMP_pressure;BME280_temperature;BME280_humidity;BME280_pressure;Samples;Min_cycle;Max_cycle;Signal;HPM_P1;HPM_P2
2022/03/19 00:01:49;;;;;;;9.23;4.38;;;;;;;7.00;58.83;102114.63;4952403;29;20043;-66
2022/03/19 00:04:14;;;;;;;10.00;5.05;;;;;;;6.98;58.48;102118.13;4953380;29;20143;-66
2022/03/19 00:06:40;;;;;;;16.08;5.45;;;;;;;6.94;58.58;102132.09;4953425;29;20491;-68
2022/03/19 00:09:07;;;;;;;7.43;4.45;;;;;;;6.90;58.98;102123.34;4954641;29;20039;-65
2022/03/19 00:11:32;;;;;;;15.52;5.25;;;;;;;6.91;58.69;102127.72;4952464;29;20035;-66
2022/03/19 00:13:58;;;;;;;10.38;5.18;;;;;;;6.90;58.18;102125.09;4953008;29;20046;-67
2022/03/19 00:16:24;;;;;;;9.60;5.05;;;;;;;6.88;58.65;102125.09;4936328;29;20043;-67
2022/03/19 00:18:49;;;;;;;9.82;4.82;;;;;;;6.87;58.29;102124.22;4955760;29;20061;-67
2022/03/19 00:21:15;;;;;;;17.67;5.13;;;;;;;6.86;58.42;102121.56;4961552;29;20389;-67
2022/03/19 00:23:40;;;;;;;10.00;6.00;;;;;;;6.83;58.67;102114.56;4959657;29;20113;-66
2022/03/19 00:26:08;;;;;;;12.45;5.18;;;;;;;6.80;58.44;102116.31;4955345;29;20043;-67
2022/03/19 00:28:33;;;;;;;9.05;4.70;;;;;;;6.78;58.51;102113.69;4954524;29;20122;-66
2022/03/19 00:30:59;;;;;;;13.82;5.00;;;;;;;6.76;58.53;102117.16;4955822;29;20050;-67
2022/03/19 00:33:25;;;;;;;11.38;5.32;;;;;;;6.71;58.63;102111.91;4955278;29;20046;-66
2022/03/19 00:35:50;;;;;;;9.10;5.30;;;;;;;6.72;58.82;102120.63;4955140;29;20042;-66
2022/03/19 00:38:16;;;;;;;11.63;5.63;;;;;;;6.69;58.74;102118.00;4956666;29;20038;-66
2022/03/19 00:40:43;;;;;;;12.35;5.43;;;;;;;6.66;58.78;102118.88;4954978;29;20114;-65
2022/03/19 00:43:09;;;;;;;9.35;5.15;;;;;;;6.62;58.89;102117.09;4953072;28;20094;-66
2022/03/19 00:45:34;;;;;;;13.02;5.30;;;;;;;6.58;59.11;102120.59;4935934;29;20039;-66
2022/03/19 00:47:59;;;;;;;9.48;5.22;;;;;;;6.56;58.65;102123.19;4952894;29;20051;-68
2022/03/19 00:50:25;;;;;;;9.43;4.95;;;;;;;6.49;59.36;102115.28;4935301;29;20031;-67
2022/03/19 00:52:50;;;;;;;8.82;3.65;;;;;;;6.45;59.19;102117.91;4951994;29;20031;-66
2022/03/19 00:55:16;;;;;;;11.43;4.57;;;;;;;6.43;59.30;102110.91;4952620;29;20123;-68
2022/03/19 00:57:43;;;;;;;9.93;5.30;;;;;;;6.42;58.95;102117.00;4952319;29;20475;-66
2022/03/19 01:00:11;;;;;;;7.93;4.65;;;;;;;6.42;58.89;102106.53;4952557;28;20047;-66
2022/03/19 01:02:38;;;;;;;8.77;4.70;;;;;;;6.37;58.92;102103.88;4951959;28;20182;-66
2022/03/19 01:05:04;;;;;;;9.38;4.88;;;;;;;6.35;58.92;102104.72;4952295;28;20035;-64
2022/03/19 01:07:30;;;;;;;8.77;4.43;;;;;;;6.32;59.04;102107.34;4952062;28;20039;-66
2022/03/19 01:09:55;;;;;;;7.95;4.90;;;;;;;6.32;58.88;102096.88;4952477;28;20027;-66
2022/03/19 01:12:20;;;;;;;10.77;5.13;;;;;;;6.27;58.78;102104.69;4951724;28;20039;-66
2022/03/19 01:14:46;;;;;;;11.88;4.78;;;;;;;6.27;58.76;102094.22;4952320;28;20035;-66
2022/03/19 01:17:11;;;;;;;7.45;5.10;;;;;;;6.25;58.87;102095.94;4952075;28;20403;-66
2022/03/19 01:19:57;;;;;;;11.00;5.20;;;;;;;6.21;58.82;102086.34;4951939;28;20050;-66
2022/03/19 01:22:22;;;;;;;11.45;5.57;;;;;;;6.18;58.82;102095.06;4951318;28;20043;-65
2022/03/19 01:24:49;;;;;;;6.80;4.30;;;;;;;6.17;58.90;102082.81;4951524;28;20035;-67
2022/03/19 01:27:14;;;;;;;9.88;4.75;;;;;;;6.14;59.10;102084.53;4951134;29;20039;-67
2022/03/19 01:29:39;;;;;;;11.30;6.07;;;;;;;6.10;59.10;102075.78;4951454;28;20038;-67
2022/03/19 01:32:05;;;;;;;12.27;5.40;;;;;;;6.10;58.99;102088.00;4950747;28;20168;-67
2022/03/19 01:34:30;;;;;;;9.85;5.05;;;;;;;6.07;58.86;102082.75;4951260;28;20046;-67
2022/03/19 01:36:56;;;;;;;9.30;5.35;;;;;;;6.03;59.16;102079.25;4951413;28;20031;-67
2022/03/19 01:39:21;;;;;;;6.18;4.10;;;;;;;6.02;59.05;102074.88;4951405;28;20470;-67
2022/03/19 01:41:47;;;;;;;7.75;5.13;;;;;;;5.97;58.94;102072.22;4951080;28;20567;-66
2022/03/19 01:44:22;;;;;;;9.00;4.53;;;;;;;5.93;58.93;102073.03;4951593;28;20058;-67
2022/03/19 01:46:56;;;;;;;8.18;4.07;;;;;;;5.92;59.47;102073.88;4951191;28;20050;-67
2022/03/19 01:49:22;;;;;;;12.10;5.22;;;;;;;5.90;59.17;102072.13;4951443;28;20067;-66
2022/03/19 01:51:47;;;;;;;12.30;4.93;;;;;;;5.87;59.33;102077.34;4950652;28;20062;-65
2022/03/19 01:54:13;;;;;;;8.52;3.97;;;;;;;5.85;59.42;102068.59;4951739;28;20506;-66
2022/03/19 01:56:39;;;;;;;5.22;3.47;;;;;;;5.81;59.26;102070.34;4949914;28;20039;-68
2022/03/19 01:59:04;;;;;;;10.82;4.05;;;;;;;5.80;59.53;102071.19;4951161;28;20031;-66
2022/03/19 02:01:30;;;;;;;9.85;4.72;;;;;;;5.73;59.76;102072.00;4944441;28;20412;-67
2022/03/19 02:03:57;;;;;;;10.30;4.55;;;;;;;5.73;59.83;102066.78;4951546;28;20043;-66
2022/03/19 02:06:25;;;;;;;9.13;5.07;;;;;;;5.71;59.58;102068.50;4949571;28;20036;-66
2022/03/19 02:08:51;;;;;;;10.00;4.45;;;;;;;5.65;59.87;102060.63;4951249;29;20042;-67
2022/03/19 02:11:17;;;;;;;8.68;4.60;;;;;;;5.63;59.93;102057.09;4950479;29;20047;-66
2022/03/19 02:13:42;;;;;;;7.45;4.32;;;;;;;5.60;60.17;102064.06;4950859;28;20443;-65
2022/03/19 02:16:09;;;;;;;6.95;4.18;;;;;;;5.60;59.82;102055.34;4954290;29;20036;-66
2022/03/19 02:18:34;;;;;;;11.77;5.05;;;;;;;5.58;60.01;102043.97;4954397;29;20085;-67
2022/03/19 02:20:59;;;;;;;8.40;4.65;;;;;;;5.55;59.80;102044.84;4953700;29;20459;-66
2022/03/19 02:26:09;;;;;;;10.38;4.60;;;;;;;5.52;60.24;102039.59;4954408;29;20089;-66
2022/03/19 02:28:34;;;;;;;8.75;4.63;;;;;;;5.50;60.29;102046.53;4954486;29;20031;-65
2022/03/19 02:31:00;;;;;;;9.82;4.50;;;;;;;5.50;59.85;102035.19;4953634;29;20039;-66
2022/03/19 02:33:25;;;;;;;8.45;4.63;;;;;;;5.47;60.40;102045.66;4954389;29;20059;-66
2022/03/19 02:35:50;;;;;;;6.95;4.53;;;;;;;5.45;60.16;102029.94;4954339;29;20054;-66
2022/03/19 02:38:15;;;;;;;12.18;4.47;;;;;;;5.42;60.65;102035.16;4954664;29;20036;-66
2022/03/19 02:40:41;;;;;;;10.98;4.75;;;;;;;5.41;60.30;102032.50;4954517;29;20046;-66
2022/03/19 02:43:06;;;;;;;9.88;4.43;;;;;;;5.41;60.60;102028.16;4954635;29;20130;-66
2022/03/19 02:45:31;;;;;;;12.25;5.07;;;;;;;5.36;60.68;102022.88;4954283;29;20045;-65
2022/03/19 02:47:57;;;;;;;11.15;4.80;;;;;;;5.34;60.86;102026.34;4954447;29;20035;-65
2022/03/19 02:50:33;;;;;;;8.40;4.32;;;;;;;5.35;60.60;102028.09;4953924;29;20051;-66
2022/03/19 02:53:01;;;;;;;14.55;6.78;;;;;;;5.31;61.12;102027.19;4954062;29;20513;-66
2022/03/19 02:55:31;;;;;;;8.55;5.00;;;;;;;5.31;61.04;102029.81;4954102;29;20418;-66
2022/03/19 02:57:56;;;;;;;8.35;5.13;;;;;;;5.30;60.79;102021.97;4954494;29;20098;-65
2022/03/19 03:00:22;;;;;;;10.70;6.05;;;;;;;5.28;61.02;102016.72;4953871;29;20042;-67
2022/03/19 03:02:47;;;;;;;10.38;4.80;;;;;;;5.27;61.08;102017.59;4953851;29;20043;-66
2022/03/19 03:05:13;;;;;;;10.85;4.97;;;;;;;5.26;60.80;102010.59;4954268;29;20090;-65
2022/03/19 03:07:38;;;;;;;17.30;5.70;;;;;;;5.24;61.12;102020.19;4955989;29;20039;-64
2022/03/19 03:10:05;;;;;;;9.75;5.10;;;;;;;5.24;61.15;102016.66;4954885;29;20039;-65
2022/03/19 03:12:30;;;;;;;5.28;4.07;;;;;;;5.24;61.40;102011.44;4954557;29;20516;-65
2022/03/19 03:14:55;;;;;;;13.25;5.60;;;;;;;5.25;61.26;102011.47;4954513;29;20126;-66
2022/03/19 03:17:21;;;;;;;11.13;4.90;;;;;;;5.22;61.26;102011.44;4954828;29;20049;-66
2022/03/19 03:19:46;;;;;;;8.35;4.25;;;;;;;5.23;61.42;102009.69;4955310;29;20035;-66
2022/03/19 03:22:11;;;;;;;11.07;4.88;;;;;;;5.20;61.71;102020.13;4936027;29;20067;-66
2022/03/19 03:24:37;;;;;;;10.45;3.88;;;;;;;5.20;61.37;102020.13;4938569;29;20061;-65
2022/03/19 03:27:02;;;;;;;15.15;4.85;;;;;;;5.19;61.36;102011.41;4954995;28;20043;-65
2022/03/19 03:29:28;;;;;;;5.60;3.50;;;;;;;5.19;61.73;102010.53;4954098;29;20046;-67
2022/03/19 03:31:53;;;;;;;15.43;5.55;;;;;;;5.15;61.25;102020.97;4956186;29;20035;-67
2022/03/19 03:34:18;;;;;;;10.18;5.00;;;;;;;5.13;61.64;102013.97;4957205;29;20074;-66
2022/03/19 03:36:44;;;;;;;9.55;4.25;;;;;;;5.14;61.39;102019.22;4956042;29;20062;-66
2022/03/19 03:39:09;;;;;;;10.40;5.05;;;;;;;5.13;61.62;102011.34;4954309;28;20487;-67
2022/03/19 03:41:34;;;;;;;7.97;4.90;;;;;;;5.10;61.59;102011.34;4952786;28;20035;-65
2022/03/19 03:44:00;;;;;;;11.38;4.90;;;;;;;5.09;61.71;102017.41;4953041;28;20031;-66
2022/03/19 03:46:25;;;;;;;10.50;5.68;;;;;;;5.05;61.88;102016.53;4951641;28;20035;-66
2022/03/19 03:48:51;;;;;;;10.55;4.93;;;;;;;5.03;62.05;102010.41;4953049;28;20039;-65
2022/03/19 03:51:16;;;;;;;15.40;4.95;;;;;;;5.02;61.90;102018.22;4952378;28;20042;-66
2022/03/19 03:53:45;;;;;;;17.98;5.90;;;;;;;5.00;62.41;102006.88;4953191;28;20051;-65
2022/03/19 03:56:11;;;;;;;8.32;5.32;;;;;;;4.94;62.20;102005.06;4953123;28;20507;-64
2022/03/19 03:58:36;;;;;;;12.98;5.22;;;;;;;4.92;62.52;102004.16;4952890;28;20114;-66
2022/03/19 04:01:02;;;;;;;14.60;5.35;;;;;;;4.90;62.49;102003.31;4951664;28;20488;-67
2022/03/19 04:03:27;;;;;;;13.85;5.10;;;;;;;4.89;62.49;101998.94;4952870;29;20078;-65
2022/03/19 04:05:53;;;;;;;11.45;5.20;;;;;;;4.88;62.88;101995.44;4952849;29;20038;-66
2022/03/19 04:08:18;;;;;;;11.85;5.10;;;;;;;4.86;62.81;101996.28;4953868;29;20049;-66
2022/03/19 04:10:44;;;;;;;8.02;4.85;;;;;;;4.85;62.90;101997.13;4953605;29;20109;-66
2022/03/19 04:13:09;;;;;;;10.38;4.65;;;;;;;4.84;62.86;102000.63;4953896;29;20035;-66
2022/03/19 04:15:35;;;;;;;8.13;5.10;;;;;;;4.83;62.96;101997.13;4953318;29;20455;-67
2022/03/19 04:18:01;;;;;;;10.23;5.20;;;;;;;4.82;62.85;101994.50;4952631;29;20062;-67
2022/03/19 04:20:27;;;;;;;10.57;4.75;;;;;;;4.80;63.05;101993.59;4952529;29;20464;-66
2022/03/19 04:22:53;;;;;;;8.50;4.72;;;;;;;4.78;63.05;101993.59;4952286;29;20131;-66
2022/03/19 04:25:21;;;;;;;9.35;5.35;;;;;;;4.77;63.01;101991.81;4952049;29;20126;-66
2022/03/19 04:27:51;;;;;;;9.35;5.55;;;;;;;4.78;62.89;101991.00;4952756;29;20494;-66
2022/03/19 04:30:18;;;;;;;11.20;4.90;;;;;;;4.77;63.35;101989.22;4952310;29;20043;-66
2022/03/19 04:33:10;;;;;;;14.02;5.57;;;;;;;4.76;63.53;101991.84;4951454;29;20055;-67
2022/03/19 04:38:22;;;;;;;8.32;4.22;;;;;;;4.74;63.51;101990.06;4951858;28;20450;-66
2022/03/19 04:40:49;;;;;;;9.55;4.95;;;;;;;4.73;63.24;101988.31;4951807;29;20058;-66
2022/03/19 04:43:15;;;;;;;8.93;4.90;;;;;;;4.71;63.33;101994.41;4951493;29;20041;-67
2022/03/19 04:45:41;;;;;;;13.07;4.72;;;;;;;4.69;63.73;101983.91;4935277;29;20102;-65
2022/03/19 04:48:07;;;;;;;9.95;4.85;;;;;;;4.67;63.44;101982.16;4951723;28;20035;-66
2022/03/19 04:50:37;;;;;;;8.40;4.80;;;;;;;4.64;63.87;101983.00;4951356;29;20126;-66
2022/03/19 04:53:04;;;;;;;10.27;5.70;;;;;;;4.65;63.75;101983.88;4951390;29;20487;-66
2022/03/19 04:55:30;;;;;;;10.00;4.47;;;;;;;4.64;63.54;101971.69;4951498;29;20442;-66
2022/03/19 04:57:55;;;;;;;13.98;5.47;;;;;;;4.63;63.78;101980.38;4951673;29;20031;-66
2022/03/19 05:00:21;;;;;;;15.13;5.97;;;;;;;4.59;63.98;101983.81;4940920;29;20100;-67
2022/03/19 05:02:46;;;;;;;11.98;4.45;;;;;;;4.59;63.93;101982.06;4933502;29;20491;-66
2022/03/19 05:05:12;;;;;;;10.27;4.82;;;;;;;4.58;63.73;101980.34;4951786;29;20038;-67
2022/03/19 05:07:39;;;;;;;9.57;4.57;;;;;;;4.58;63.80;101979.44;4951747;29;20709;-67
2022/03/19 05:12:52;;;;;;;9.95;4.80;;;;;;;4.55;63.98;101982.88;4950791;29;20514;-66
2022/03/19 05:15:18;;;;;;;10.35;5.68;;;;;;;4.55;64.08;101987.25;4934109;29;20411;-67
2022/03/19 05:17:44;;;;;;;7.65;4.22;;;;;;;4.52;63.91;101988.09;4951285;29;20094;-67
2022/03/19 05:20:11;;;;;;;11.63;5.22;;;;;;;4.50;64.22;101988.09;4951433;29;20051;-67
2022/03/19 05:22:37;;;;;;;12.05;5.05;;;;;;;4.50;64.22;101988.09;4950753;29;20126;-66
2022/03/19 05:25:04;;;;;;;10.27;5.25;;;;;;;4.47;64.31;101982.81;4934223;29;20035;-66
2022/03/19 05:27:29;;;;;;;10.70;4.63;;;;;;;4.46;63.88;101986.28;4951480;29;20423;-66
2022/03/19 05:29:55;;;;;;;10.43;5.07;;;;;;;4.44;64.05;101985.38;4951527;29;20031;-66
2022/03/19 05:32:21;;;;;;;9.70;5.00;;;;;;;4.39;64.15;101984.47;4950889;29;20044;-67
2022/03/19 05:34:48;;;;;;;9.45;4.38;;;;;;;4.38;63.96;101977.50;4951068;29;20035;-66
2022/03/19 05:37:14;;;;;;;9.00;5.10;;;;;;;4.37;64.35;101988.78;4951245;28;20036;-66
2022/03/19 05:39:40;;;;;;;10.02;5.38;;;;;;;4.35;64.64;101987.88;4952592;28;20074;-66
2022/03/19 05:42:06;;;;;;;13.40;5.25;;;;;;;4.34;64.63;101993.97;4950800;28;20505;-67
2022/03/19 05:44:32;;;;;;;12.50;5.50;;;;;;;4.32;64.75;101995.69;4951235;28;20514;-66
2022/03/19 05:46:58;;;;;;;14.77;5.25;;;;;;;4.31;64.38;101993.94;4951182;28;20035;-64
2022/03/19 05:49:27;;;;;;;12.85;5.43;;;;;;;4.30;64.52;101997.41;4951865;28;20035;-66
2022/03/19 05:51:53;;;;;;;10.95;5.45;;;;;;;4.30;64.59;101997.41;4954710;28;20399;-66
2022/03/19 05:54:19;;;;;;;12.07;4.93;;;;;;;4.29;64.77;101999.16;4938063;28;20035;-65
2022/03/19 05:56:45;;;;;;;9.30;4.68;;;;;;;4.31;64.66;102004.41;4937980;28;20463;-66
2022/03/19 05:59:10;;;;;;;11.70;4.70;;;;;;;4.29;64.50;102000.88;4955529;28;20066;-67
2022/03/19 06:01:36;;;;;;;13.40;4.70;;;;;;;4.32;64.50;101994.81;4954430;28;20093;-66
2022/03/19 06:04:01;;;;;;;9.00;4.95;;;;;;;4.33;64.72;102002.66;4954894;28;20547;-65
2022/03/19 06:06:28;;;;;;;10.25;5.82;;;;;;;4.35;64.64;102011.38;4955144;28;20458;-66
2022/03/19 06:08:54;;;;;;;9.85;5.35;;;;;;;4.38;64.48;102011.44;4955162;28;20118;-65
2022/03/19 06:11:20;;;;;;;15.95;5.00;;;;;;;4.42;64.01;102010.59;4953771;28;20123;-66
2022/03/19 06:13:45;;;;;;;13.95;5.43;;;;;;;4.46;64.25;102009.78;4955153;29;20102;-66
2022/03/19 06:16:11;;;;;;;9.80;4.35;;;;;;;4.48;63.96;102008.09;4955440;29;20090;-67
2022/03/19 06:18:36;;;;;;;8.15;5.00;;;;;;;4.49;64.03;102004.59;4955231;29;20512;-66
2022/03/19 06:21:02;;;;;;;7.15;4.32;;;;;;;4.52;63.92;102007.25;4954816;29;20066;-65
2022/03/19 06:23:28;;;;;;;6.95;3.85;;;;;;;4.58;64.13;101997.72;4955128;29;20036;-66
2022/03/19 06:25:54;;;;;;;12.00;5.47;;;;;;;4.58;63.77;102001.22;4955754;29;20039;-66
2022/03/19 06:28:19;;;;;;;16.42;6.57;;;;;;;4.62;63.89;102003.00;4956005;29;20031;-67
2022/03/19 06:30:45;;;;;;;12.68;5.05;;;;;;;4.69;63.67;102012.66;4956414;29;20037;-66
2022/03/19 06:33:13;;;;;;;7.82;5.10;;;;;;;4.86;63.49;102002.38;4958438;29;20542;-65
2022/03/19 06:38:28;;;;;;;16.45;5.97;;;;;;;5.28;62.37;102002.75;4962662;29;20070;-65
2022/03/19 06:40:54;;;;;;;22.17;5.88;;;;;;;5.30;61.79;102009.75;4967732;29;20078;-66
2022/03/19 06:43:20;;;;;;;8.80;4.75;;;;;;;5.37;62.16;102005.47;4966660;28;20045;-66
2022/03/19 06:45:45;;;;;;;13.48;6.38;;;;;;;5.41;62.02;102008.97;4962692;29;20445;-66
2022/03/19 06:48:11;;;;;;;14.20;4.95;;;;;;;5.46;61.66;102002.91;4957701;29;20035;-66
2022/03/19 06:50:36;;;;;;;7.00;4.28;;;;;;;5.56;61.85;102002.13;4955254;29;20039;-67
2022/03/19 06:53:03;;;;;;;16.85;6.18;;;;;;;5.72;61.65;102003.09;4955842;29;20069;-66
2022/03/19 06:55:28;;;;;;;9.60;5.13;;;;;;;5.86;60.96;102004.91;4957071;29;20043;-66
2022/03/19 06:57:54;;;;;;;12.43;5.60;;;;;;;5.98;60.64;102008.53;4958456;29;20035;-66
2022/03/19 07:00:20;;;;;;;7.53;4.53;;;;;;;6.12;60.18;101992.88;4957021;28;20046;-66
2022/03/19 07:02:55;;;;;;;11.13;6.10;;;;;;;6.35;59.40;101995.59;4956176;29;20028;-65
2022/03/19 07:05:24;;;;;;;13.45;5.57;;;;;;;6.50;59.04;101996.50;4955177;29;20035;-66
2022/03/19 07:07:51;;;;;;;14.93;5.10;;;;;;;6.68;58.50;101999.19;4954331;29;20035;-66
2022/03/19 07:10:18;;;;;;;9.38;5.15;;;;;;;6.75;58.30;101989.59;4954308;29;20062;-65
2022/03/19 07:12:49;;;;;;;6.97;4.75;;;;;;;6.68;58.45;101996.56;4954191;29;20045;-66
2022/03/19 07:15:17;;;;;;;12.43;5.93;;;;;;;6.74;58.44;101988.69;4954118;29;20042;-66
2022/03/19 07:17:43;;;;;;;9.00;5.03;;;;;;;6.85;58.78;101993.97;4954631;29;20039;-67
2022/03/19 07:20:10;;;;;;;14.85;5.90;;;;;;;6.85;58.51;101979.13;4953924;29;20031;-67
2022/03/19 07:22:55;;;;;;;12.30;5.88;;;;;;;7.07;58.22;101989.66;4953203;29;20054;-67
2022/03/19 07:25:24;;;;;;;11.70;5.70;;;;;;;7.01;58.27;101987.88;4953623;29;20035;-67
2022/03/19 07:27:51;;;;;;;10.02;4.97;;;;;;;7.01;58.32;101987.00;4937014;29;20075;-66
2022/03/19 07:30:17;;;;;;;13.82;5.30;;;;;;;7.06;58.28;101988.78;4954132;29;20608;-65
2022/03/19 07:32:42;;;;;;;14.73;5.25;;;;;;;7.10;58.35;101987.00;4954610;29;20204;-66
2022/03/19 07:35:09;;;;;;;9.82;5.32;;;;;;;7.31;58.10;101979.16;4955349;29;20399;-66
2022/03/19 07:37:34;;;;;;;12.77;6.45;;;;;;;7.64;57.01;101985.22;4954562;28;20175;-67
2022/03/19 07:40:00;;;;;;;16.15;6.22;;;;;;;7.75;56.57;101979.94;4954696;28;20055;-66
2022/03/19 07:42:26;;;;;;;12.20;6.15;;;;;;;7.77;56.31;101978.19;4953134;28;20047;-65
2022/03/19 07:44:52;;;;;;;10.13;6.07;;;;;;;7.99;55.88;101979.00;4953237;28;20027;-66
2022/03/19 07:47:18;;;;;;;13.43;5.32;;;;;;;8.25;55.04;101980.69;4953124;28;20036;-67
2022/03/19 07:49:44;;;;;;;12.80;5.60;;;;;;;8.40;54.70;101975.38;4952946;28;20039;-66
2022/03/19 07:52:10;;;;;;;9.43;5.78;;;;;;;8.81;53.42;101975.16;4952789;28;20095;-66
2022/03/19 07:54:38;;;;;;;11.07;5.65;;;;;;;9.34;52.62;101967.69;4942521;28;20042;-67
2022/03/19 07:57:04;;;;;;;11.90;5.50;;;;;;;9.87;51.38;101962.78;4953457;28;20102;-67
2022/03/19 07:59:30;;;;;;;13.80;5.18;;;;;;;10.31;49.16;101958.75;4953175;28;20039;-65
2022/03/19 08:01:55;;;;;;;12.00;6.00;;;;;;;10.55;49.08;101959.31;4952378;28;20027;-67
2022/03/19 08:04:22;;;;;;;11.63;5.80;;;;;;;10.92;48.27;101957.88;4952645;28;20035;-67
2022/03/19 08:06:49;;;;;;;8.23;4.97;;;;;;;11.14;47.20;101957.53;4952553;28;20510;-67
2022/03/19 08:09:15;;;;;;;9.95;5.38;;;;;;;11.41;46.68;101950.91;4951858;28;20031;-66
2022/03/19 08:11:40;;;;;;;12.88;5.75;;;;;;;11.39;46.92;101956.22;4952145;28;20114;-67
2022/03/19 08:14:06;;;;;;;12.02;5.22;;;;;;;11.91;45.77;101958.78;4933981;29;20031;-67
2022/03/19 08:16:31;;;;;;;11.13;5.82;;;;;;;12.40;44.57;101952.47;4952147;29;20043;-66
2022/03/19 08:18:57;;;;;;;8.60;5.18;;;;;;;12.61;43.84;101959.94;4952743;29;20675;-66
2022/03/19 08:21:22;;;;;;;12.13;5.38;;;;;;;13.24;42.53;101963.75;4951723;29;20039;-67
2022/03/19 08:23:48;;;;;;;13.55;6.03;;;;;;;13.78;40.99;101957.00;4952733;29;20039;-67
2022/03/19 08:26:14;;;;;;;10.07;5.22;;;;;;;14.37;40.54;101956.19;4952045;29;20067;-66
2022/03/19 08:28:39;;;;;;;13.25;6.10;;;;;;;14.79;39.11;101962.03;4953025;29;20035;-67
2022/03/19 08:31:05;;;;;;;9.30;5.03;;;;;;;15.05;39.14;101957.63;4941117;29;20165;-66
2022/03/19 08:33:30;;;;;;;10.60;5.95;;;;;;;15.28;37.89;101950.69;4951659;29;20043;-66
2022/03/19 08:35:56;;;;;;;8.90;4.60;;;;;;;15.38;38.05;101957.41;4951897;29;20098;-66
2022/03/19 08:41:06;;;;;;;10.13;5.00;;;;;;;15.05;37.64;101967.41;4951896;29;20055;-68
2022/03/19 08:43:31;;;;;;;9.27;5.30;;;;;;;14.94;38.13;101959.75;4952500;29;20411;-67
2022/03/19 08:45:57;;;;;;;9.65;5.18;;;;;;;14.97;37.85;101957.88;4951940;29;20032;-67
2022/03/19 08:48:22;;;;;;;8.63;5.10;;;;;;;15.41;36.88;101954.66;4952843;29;20425;-67
2022/03/19 08:50:48;;;;;;;11.32;5.28;;;;;;;15.55;36.63;101954.16;4952024;29;20032;-66
2022/03/19 08:53:14;;;;;;;14.85;5.35;;;;;;;15.40;36.62;101955.56;4951315;29;20516;-67
2022/03/19 08:55:40;;;;;;;10.95;6.10;;;;;;;14.71;38.06;101957.84;4952727;29;20039;-67
2022/03/19 08:58:06;;;;;;;10.77;4.68;;;;;;;14.93;37.87;101956.25;4951874;29;20031;-67
2022/03/19 09:00:31;;;;;;;14.90;6.13;;;;;;;14.82;37.73;101943.31;4951790;29;20484;-67
2022/03/19 09:02:56;;;;;;;10.32;4.15;;;;;;;15.38;37.53;101950.31;4951726;29;20466;-67
2022/03/19 09:05:23;;;;;;;11.27;4.32;;;;;;;15.62;36.59;101935.28;4951814;29;20099;-68
2022/03/19 09:07:48;;;;;;;8.70;4.75;;;;;;;15.62;36.01;101929.97;4952327;29;20463;-67
2022/03/19 09:10:14;;;;;;;9.50;5.13;;;;;;;15.84;36.16;101926.56;4952040;29;20031;-67
2022/03/19 09:12:40;;;;;;;10.15;6.18;;;;;;;15.59;35.62;101931.88;4952259;29;20479;-66
2022/03/19 09:15:13;;;;;;;10.82;4.88;;;;;;;15.45;35.80;101935.00;4951976;29;20114;-66
2022/03/19 09:17:40;;;;;;;9.73;3.95;;;;;;;15.95;35.32;101936.78;4934904;29;20118;-66
2022/03/19 09:20:06;;;;;;;11.13;4.93;;;;;;;16.12;34.77;101926.41;4952082;29;20046;-66
2022/03/19 09:22:32;;;;;;;9.38;4.88;;;;;;;16.62;33.96;101936.88;4951188;29;20049;-65
2022/03/19 09:24:57;;;;;;;13.50;5.82;;;;;;;16.39;34.05;101931.56;4951905;28;20035;-67
2022/03/19 09:27:23;;;;;;;8.63;5.05;;;;;;;16.53;33.96;101939.88;4934843;29;20051;-66
2022/03/19 09:29:48;;;;;;;7.95;4.47;;;;;;;16.57;33.66;101919.34;4951694;28;20035;-64
2022/03/19 09:32:16;;;;;;;7.50;4.80;;;;;;;17.21;33.29;101916.69;4951720;28;20086;-67
2022/03/19 09:34:43;;;;;;;9.98;4.95;;;;;;;17.38;32.78;101916.84;4952218;28;20031;-67
2022/03/19 09:37:08;;;;;;;7.25;4.85;;;;;;;17.34;32.26;101909.91;4952068;28;20031;-67
2022/03/19 09:39:34;;;;;;;12.68;5.35;;;;;;;17.90;31.78;101894.13;4952202;28;20046;-66
2022/03/19 09:42:01;;;;;;;10.57;5.15;;;;;;;18.06;31.01;101900.47;4951513;28;20144;-67
2022/03/19 09:44:26;;;;;;;8.60;5.07;;;;;;;17.83;31.45;101888.19;4952288;28;20399;-67
2022/03/19 09:46:52;;;;;;;9.07;4.93;;;;;;;18.17;30.78;101881.28;4952049;28;20035;-66
2022/03/19 09:49:19;;;;;;;8.80;4.45;;;;;;;18.43;29.88;101882.69;4951397;28;20039;-67
2022/03/19 09:51:53;;;;;;;8.48;4.50;;;;;;;18.19;30.16;101884.75;4950592;28;20057;-67
2022/03/19 09:54:19;;;;;;;12.03;4.53;;;;;;;17.60;30.75;101891.88;4951880;28;20075;-67
2022/03/19 09:56:45;;;;;;;13.82;4.68;;;;;;;17.73;30.29;101874.38;4951553;28;20781;-66
2022/03/19 09:59:10;;;;;;;6.93;4.32;;;;;;;18.12;29.94;101886.84;4950341;28;20118;-67
2022/03/19 10:01:37;;;;;;;8.45;4.43;;;;;;;18.54;29.16;101871.50;4948948;28;20058;-68
2022/03/19 10:04:07;;;;;;;8.38;4.70;;;;;;;18.53;28.67;101857.25;4951402;28;20046;-67
2022/03/19 10:09:20;;;;;;;7.35;4.72;;;;;;;18.51;28.45;101861.84;4951442;28;20058;-66
2022/03/19 10:11:51;;;;;;;9.38;5.32;;;;;;;19.07;28.00;101858.13;4950839;28;20399;-67
2022/03/19 10:14:22;;;;;;;13.18;5.20;;;;;;;19.60;27.49;101850.03;4951372;28;20600;-67
2022/03/19 10:16:51;;;;;;;28.42;7.15;;;;;;;19.57;27.03;101860.91;4951677;28;20039;-67
2022/03/19 10:19:17;;;;;;;15.27;5.00;;;;;;;19.26;27.01;101855.34;4949821;28;20042;-67
2022/03/19 10:21:42;;;;;;;10.73;4.55;;;;;;;19.73;26.81;101851.97;4954069;29;20039;-66
2022/03/19 10:24:27;;;;;;;8.73;4.63;;;;;;;20.08;25.79;101845.59;4955947;29;20040;-66
2022/03/19 10:26:53;;;;;;;8.48;4.53;;;;;;;20.31;25.93;101837.13;4953972;29;20035;-67
2022/03/19 10:29:31;;;;;;;8.50;5.03;;;;;;;19.86;26.79;101845.94;4952147;29;20042;-67
2022/03/19 10:32:03;;;;;;;12.52;4.63;;;;;;;19.39;26.62;101836.84;4950625;29;20035;-67
2022/03/19 10:34:30;;;;;;;11.32;3.97;;;;;;;19.40;26.82;101833.22;4951518;28;20055;-66
2022/03/19 10:36:56;;;;;;;12.27;5.30;;;;;;;19.01;26.78;101865.59;4953811;29;20559;-65
2022/03/19 10:39:26;;;;;;;10.43;4.75;;;;;;;18.75;26.92;101832.13;4954379;29;20135;-68
2022/03/19 10:41:53;;;;;;;7.47;4.25;;;;;;;18.75;27.55;101830.31;4954358;29;20042;-67
2022/03/19 10:44:21;;;;;;;9.15;4.30;;;;;;;18.37;27.93;101822.44;4954445;29;20043;-67
2022/03/19 10:46:52;;;;;;;8.88;4.70;;;;;;;17.71;27.93;101819.38;4937254;29;20483;-67
2022/03/19 10:49:21;;;;;;;9.05;4.57;;;;;;;16.94;29.16;101818.34;4954399;29;20078;-67
2022/03/19 10:51:48;;;;;;;11.20;4.88;;;;;;;16.53;29.74;101806.75;4953432;29;20039;-66
2022/03/19 10:54:14;;;;;;;10.52;4.90;;;;;;;15.81;30.43;101807.00;4954747;29;20403;-68
2022/03/19 10:56:42;;;;;;;11.50;4.47;;;;;;;15.83;30.50;101791.84;4954531;29;20554;-67
2022/03/19 10:59:07;;;;;;;9.13;4.78;;;;;;;15.50;31.40;101810.78;4954449;29;20035;-68
2022/03/19 11:01:37;;;;;;;10.50;4.97;;;;;;;15.18;31.78;101799.53;4953525;29;20514;-66
2022/03/19 11:04:07;;;;;;;12.45;4.80;;;;;;;14.50;33.24;101805.44;4944457;29;20035;-67
2022/03/19 11:06:38;;;;;;;17.00;5.30;;;;;;;13.89;35.40;101805.59;4954195;29;20046;-67
2022/03/19 11:09:06;;;;;;;12.88;5.07;;;;;;;13.80;35.31;101777.56;4954663;29;20236;-67
2022/03/19 11:11:39;;;;;;;8.48;5.00;;;;;;;13.58;35.74;101780.00;4954793;29;20031;-67
2022/03/19 11:14:07;;;;;;;11.85;4.53;;;;;;;13.62;35.78;101789.59;4955746;29;20047;-65
2022/03/19 11:16:36;;;;;;;8.80;4.82;;;;;;;13.58;35.56;101777.34;4938358;29;20050;-66
2022/03/19 11:19:03;;;;;;;7.22;4.68;;;;;;;13.41;36.37;101769.03;4954725;28;20435;-66
2022/03/19 11:21:31;;;;;;;11.68;6.22;;;;;;;13.44;36.10;101768.97;4954367;28;20524;-68
2022/03/19 11:24:23;;;;;;;7.50;5.22;;;;;;;13.49;36.47;101759.97;4955212;28;20031;-66
2022/03/19 11:26:51;;;;;;;12.88;4.75;;;;;;;13.24;36.40;101774.78;4954462;28;20622;-67
2022/03/19 11:29:18;;;;;;;8.77;4.40;;;;;;;12.98;36.57;101757.84;4953544;28;20035;-66
2022/03/19 11:31:57;;;;;;;8.48;4.07;;;;;;;12.99;35.83;101758.72;4954262;28;20094;-67
2022/03/19 11:34:23;;;;;;;8.70;4.18;;;;;;;13.09;36.31;101739.91;4952772;28;20050;-66
2022/03/19 11:36:58;;;;;;;11.20;4.88;;;;;;;13.11;35.89;101750.44;4953916;28;20154;-67
2022/03/19 11:39:24;;;;;;;11.80;4.25;;;;;;;13.05;34.78;101755.91;4953856;28;20081;-66
2022/03/19 11:41:51;;;;;;;12.50;5.78;;;;;;;13.00;34.30;101734.00;4953070;28;20039;-66